Time;durP1;ratioP1;P1;durP2;ratioP2;P2;SDS_P1;SDS_P2;PMS_P1;PMS_P2;Temp;Humidity;BMP_temperature;BMP_pressure;BME280_temperature;BME280_humidity;BME280_pressure;Samples;Min_cycle;Max_cycle;Signal;HPM_P1;HPM_P2
2021/07/07 00:01:55;;;;;;;;;;;16.20;99.90;;;;;;5063930;28;19991;-70
2021/07/07 00:04:21;;;;;;;;;;;16.20;99.90;;;;;;5067012;28;20004;-69
2021/07/07 00:06:48;;;;;;;;;;;16.20;99.90;;;;;;5073124;28;20337;-69
2021/07/07 00:09:15;;;;;;;;;;;16.20;99.90;;;;;;5072981;28;19983;-69
2021/07/07 00:11:41;;;;;;;;;;;16.20;99.90;;;;;;5094392;28;20006;-70
2021/07/07 00:14:08;;;;;;;;;;;16.20;99.90;;;;;;5095757;28;19985;-70
2021/07/07 00:16:35;;;;;;;;;;;16.20;99.90;;;;;;5090738;28;20002;-70
2021/07/07 00:19:02;;;;;;;;;;;16.20;99.90;;;;;;5098183;28;19948;-70
2021/07/07 00:21:29;;;;;;;;;;;16.20;99.90;;;;;;5097107;28;19943;-70
2021/07/07 00:23:55;;;;;;;;;;;16.30;99.90;;;;;;5093370;28;20396;-70
2021/07/07 00:26:22;;;;;;;;;;;16.30;99.90;;;;;;5067475;28;20038;-70
2021/07/07 00:28:49;;;;;;;;;;;16.30;99.90;;;;;;5094132;28;19948;-70
2021/07/07 00:31:16;;;;;;;;;;;16.30;99.90;;;;;;5103798;27;19993;-70
2021/07/07 00:33:42;;;;;;;;;;;16.30;99.90;;;;;;5087341;28;19969;-69
2021/07/07 00:36:09;;;;;;;;;;;16.20;99.90;;;;;;5099723;28;20054;-70
2021/07/07 00:38:36;;;;;;;;;;;16.20;99.90;;;;;;5098055;27;19989;-70
2021/07/07 00:41:03;;;;;;;;;;;16.20;99.90;;;;;;5084441;28;19948;-70
2021/07/07 00:43:29;;;;;;;;;;;16.20;99.90;;;;;;5068973;28;19957;-70
2021/07/07 00:45:56;;;;;;;;;;;16.10;99.90;;;;;;5093961;28;19946;-70
2021/07/07 00:48:23;;;;;;;;;;;16.10;99.90;;;;;;5090302;28;19949;-70
2021/07/07 00:50:50;;;;;;;;;;;16.00;99.90;;;;;;5097885;28;19974;-70
2021/07/07 00:53:17;;;;;;;;;;;16.00;99.90;;;;;;5093127;28;19984;-70
2021/07/07 00:55:45;;;;;;;;;;;16.00;99.90;;;;;;5093004;28;20422;-70
2021/07/07 00:58:12;;;;;;;;;;;15.90;99.90;;;;;;5095286;28;20057;-70
2021/07/07 01:00:39;;;;;;;;;;;15.90;99.90;;;;;;5094227;28;20189;-70
2021/07/07 01:03:06;;;;;;;;;;;15.90;99.90;;;;;;5087797;28;20003;-70
2021/07/07 01:05:33;;;;;;;;;;;15.80;99.90;;;;;;5093593;28;20383;-69
2021/07/07 01:07:59;;;;;;;;;;;15.80;99.90;;;;;;5085602;28;19951;-70
2021/07/07 01:10:26;;;;;;;;;;;15.80;99.90;;;;;;5090608;28;19984;-70
2021/07/07 01:12:53;;;;;;;;;;;15.80;99.90;;;;;;5085656;28;20025;-70
2021/07/07 01:15:20;;;;;;;;;;;15.80;99.90;;;;;;5089276;28;20185;-69
2021/07/07 01:17:48;;;;;;;;;;;15.70;99.90;;;;;;5099940;28;20322;-70
2021/07/07 01:20:16;;;;;;;;;;;15.70;99.90;;;;;;5100594;28;19948;-70
2021/07/07 01:22:43;;;;;;;;;;;15.70;99.90;;;;;;5100978;28;20019;-70
2021/07/07 01:25:11;;;;;;;;;;;15.70;99.90;;;;;;5095118;28;20085;-71
2021/07/07 01:27:38;;;;;;;;;;;15.60;99.90;;;;;;5089912;28;20015;-71
2021/07/07 01:30:06;;;;;;;;;;;15.60;99.90;;;;;;5066740;28;19952;-71
2021/07/07 01:32:33;;;;;;;;;;;15.60;99.90;;;;;;5094920;28;19957;-70
2021/07/07 01:35:00;;;;;;;;;;;15.60;99.90;;;;;;5089546;28;20497;-70
2021/07/07 01:37:27;;;;;;;;;;;15.60;99.90;;;;;;5099540;28;20019;-70
2021/07/07 01:39:53;;;;;;;;;;;15.60;99.90;;;;;;5092641;28;20449;-70
2021/07/07 01:42:20;;;;;;;;;;;15.60;99.90;;;;;;5094955;28;20059;-70
2021/07/07 01:44:47;;;;;;;;;;;15.70;99.90;;;;;;5086030;28;20001;-70
2021/07/07 01:47:14;;;;;;;;;;;15.70;99.90;;;;;;5099038;28;19960;-70
2021/07/07 01:49:41;;;;;;;;;;;15.60;99.90;;;;;;5106336;28;19964;-70
2021/07/07 01:52:07;;;;;;;;;;;15.60;99.90;;;;;;5099265;28;20051;-71
2021/07/07 01:54:34;;;;;;;;;;;15.60;99.90;;;;;;5108507;28;20057;-70
2021/07/07 01:57:00;;;;;;;;;;;15.60;99.90;;;;;;5095589;28;20104;-70
2021/07/07 01:59:27;;;;;;;;;;;15.60;99.90;;;;;;5089861;28;20418;-70
2021/07/07 02:01:54;;;;;;;;;;;15.60;99.90;;;;;;5097488;28;20002;-70
2021/07/07 02:04:22;;;;;;;;;;;15.50;99.90;;;;;;5095917;28;20056;-70
2021/07/07 02:06:49;;;;;;;;;;;15.50;99.90;;;;;;5101343;28;19964;-70
2021/07/07 02:09:18;;;;;;;;;;;15.50;99.90;;;;;;5103929;27;20008;-71
2021/07/07 02:11:46;;;;;;;;;;;15.50;99.90;;;;;;5090016;28;20014;-70
2021/07/07 02:14:14;;;;;;;;;;;15.50;99.90;;;;;;5092751;28;20415;-70
2021/07/07 02:16:40;;;;;;;;;;;15.50;99.90;;;;;;5086447;28;19974;-70
2021/07/07 02:19:07;;;;;;;;;;;15.50;99.90;;;;;;5094551;28;19975;-70
2021/07/07 02:21:34;;;;;;;;;;;15.50;99.90;;;;;;5096803;28;19954;-70
2021/07/07 02:24:01;;;;;;;;;;;15.40;99.90;;;;;;5096806;28;20004;-70
2021/07/07 02:26:27;;;;;;;;;;;15.40;99.90;;;;;;5078258;28;20586;-70
2021/07/07 02:28:54;;;;;;;;;;;15.40;99.90;;;;;;5103321;28;20028;-70
2021/07/07 02:31:22;;;;;;;;;;;15.40;99.90;;;;;;5098899;28;20024;-71
2021/07/07 02:33:48;;;;;;;;;;;15.40;99.90;;;;;;5107183;28;20444;-70
2021/07/07 02:36:15;;;;;;;;;;;15.40;99.90;;;;;;5104964;28;19980;-70
2021/07/07 02:38:42;;;;;;;;;;;15.40;99.90;;;;;;5107690;27;20308;-70
2021/07/07 02:41:08;;;;;;;;;;;15.40;99.90;;;;;;5088377;28;20037;-70
2021/07/07 02:43:35;;;;;;;;;;;15.50;99.90;;;;;;5095577;28;19996;-70
2021/07/07 02:46:02;;;;;;;;;;;15.40;99.90;;;;;;5103250;28;19993;-70
2021/07/07 02:48:29;;;;;;;;;;;15.40;99.90;;;;;;5075904;28;19961;-70
2021/07/07 02:50:56;;;;;;;;;;;15.40;99.90;;;;;;5095381;28;20010;-70
2021/07/07 02:53:22;;;;;;;;;;;15.40;99.90;;;;;;5105235;28;19992;-70
2021/07/07 02:55:49;;;;;;;;;;;15.40;99.90;;;;;;5086832;28;20372;-70
2021/07/07 02:58:16;;;;;;;;;;;15.40;99.90;;;;;;5101451;28;19993;-70
2021/07/07 03:00:46;;;;;;;;;;;15.40;99.90;;;;;;5095793;28;19949;-70
2021/07/07 03:03:17;;;;;;;;;;;15.50;99.90;;;;;;5100539;28;19958;-70
2021/07/07 03:05:45;;;;;;;;;;;15.50;99.90;;;;;;5107593;28;20009;-70
2021/07/07 03:08:12;;;;;;;;;;;15.50;99.90;;;;;;5098199;28;19985;-70
2021/07/07 03:10:40;;;;;;;;;;;15.50;99.90;;;;;;5092177;28;20037;-70
2021/07/07 03:13:07;;;;;;;;;;;15.50;99.90;;;;;;5076707;28;20434;-70
2021/07/07 03:15:36;;;;;;;;;;;15.50;99.90;;;;;;5075246;28;20037;-71
2021/07/07 03:18:03;;;;;;;;;;;15.50;99.90;;;;;;5092318;28;20410;-70
2021/07/07 03:20:30;;;;;;;;;;;15.60;99.90;;;;;;5076630;28;20666;-71
2021/07/07 03:22:57;;;;;;;;;;;15.60;99.90;;;;;;5086421;28;20360;-70
2021/07/07 03:25:24;;;;;;;;;;;15.60;99.90;;;;;;5102391;28;19990;-70
2021/07/07 03:27:51;;;;;;;;;;;15.60;99.90;;;;;;5086533;28;20044;-70
2021/07/07 03:30:17;;;;;;;;;;;15.60;99.90;;;;;;5098243;28;20002;-70
2021/07/07 03:32:44;;;;;;;;;;;15.60;99.90;;;;;;5088599;28;20570;-70
2021/07/07 03:35:11;;;;;;;;;;;15.60;99.90;;;;;;5101598;28;20024;-70
2021/07/07 03:37:38;;;;;;;;;;;15.60;99.90;;;;;;5091185;28;20058;-71
2021/07/07 03:40:07;;;;;;;;;;;15.60;99.90;;;;;;5086936;28;19970;-70
2021/07/07 03:42:33;;;;;;;;;;;15.60;99.90;;;;;;5055484;28;20003;-72
2021/07/07 03:45:00;;;;;;;;;;;15.60;99.90;;;;;;5094886;28;19998;-70
2021/07/07 03:47:27;;;;;;;;;;;15.60;99.90;;;;;;5093363;28;20013;-70
2021/07/07 03:49:53;;;;;;;;;;;15.60;99.90;;;;;;5098471;27;19949;-71
2021/07/07 03:52:20;;;;;;;;;;;15.60;99.90;;;;;;5096324;28;20015;-70
2021/07/07 03:54:47;;;;;;;;;;;15.60;99.90;;;;;;5084013;28;20347;-70
2021/07/07 03:57:13;;;;;;;;;;;15.50;99.90;;;;;;5097707;28;20022;-70
2021/07/07 03:59:41;;;;;;;;;;;15.50;99.90;;;;;;5087922;28;20044;-71
2021/07/07 04:02:07;;;;;;;;;;;15.50;99.90;;;;;;5087204;28;20022;-70
2021/07/07 04:04:36;;;;;;;;;;;15.50;99.90;;;;;;5097945;28;20590;-70
2021/07/07 04:07:03;;;;;;;;;;;15.50;99.90;;;;;;5099976;28;19949;-70
2021/07/07 04:09:30;;;;;;;;;;;15.50;99.90;;;;;;5083262;28;19993;-70
2021/07/07 04:11:58;;;;;;;;;;;15.50;99.90;;;;;;5087803;28;20041;-70
2021/07/07 04:14:26;;;;;;;;;;;15.60;99.90;;;;;;5097484;28;19965;-71
2021/07/07 04:16:53;;;;;;;;;;;15.60;99.90;;;;;;5074961;28;20047;-70
2021/07/07 04:19:20;;;;;;;;;;;15.60;99.90;;;;;;5065138;28;19966;-70
2021/07/07 04:21:47;;;;;;;;;;;15.60;99.90;;;;;;5080137;28;20352;-71
2021/07/07 04:24:14;;;;;;;;;;;15.60;99.90;;;;;;5085999;28;19979;-71
2021/07/07 04:26:41;;;;;;;;;;;15.60;99.90;;;;;;5070447;28;20002;-70
2021/07/07 04:29:07;;;;;;;;;;;15.70;99.90;;;;;;5080962;28;19993;-70
2021/07/07 04:31:35;;;;;;;;;;;15.60;99.90;;;;;;5088607;28;20043;-70
2021/07/07 04:34:02;;;;;;;;;;;15.60;99.90;;;;;;5093391;28;19954;-70
2021/07/07 04:36:29;;;;;;;;;;;15.70;99.90;;;;;;5090104;28;19984;-70
2021/07/07 04:38:56;;;;;;;;;;;15.70;99.90;;;;;;5068373;28;20004;-70
2021/07/07 04:41:23;;;;;;;;;;;15.70;99.90;;;;;;5096227;28;20029;-70
2021/07/07 04:43:49;;;;;;;;;;;15.80;99.90;;;;;;5089543;28;20003;-70
2021/07/07 04:46:17;;;;;;;;;;;15.80;99.90;;;;;;5092666;28;20001;-70
2021/07/07 04:48:44;;;;;;;;;;;15.90;99.90;;;;;;5098093;28;19950;-70
2021/07/07 04:51:11;;;;;;;;;;;15.90;99.90;;;;;;5096065;28;20309;-70
2021/07/07 04:53:42;;;;;;;;;;;15.80;99.90;;;;;;5073412;28;19992;-70
2021/07/07 04:56:08;;;;;;;;;;;15.80;99.90;;;;;;5090606;28;20038;-70
2021/07/07 04:58:36;;;;;;;;;;;15.80;99.90;;;;;;5086548;28;20038;-70
2021/07/07 05:01:05;;;;;;;;;;;15.80;99.90;;;;;;5073501;28;19960;-70
2021/07/07 05:03:31;;;;;;;;;;;15.90;99.90;;;;;;5097862;28;19948;-70
2021/07/07 05:05:58;;;;;;;;;;;15.90;99.90;;;;;;5095498;28;19988;-70
2021/07/07 05:08:25;;;;;;;;;;;15.80;99.90;;;;;;5092715;28;19992;-70
2021/07/07 05:10:52;;;;;;;;;;;15.90;99.90;;;;;;5097873;28;20305;-70
2021/07/07 05:13:18;;;;;;;;;;;15.90;99.90;;;;;;5099102;28;20008;-71
2021/07/07 05:15:46;;;;;;;;;;;15.90;99.90;;;;;;5090648;28;20358;-71
2021/07/07 05:18:14;;;;;;;;;;;15.90;99.90;;;;;;5076379;28;19979;-70
2021/07/07 05:20:40;;;;;;;;;;;15.90;99.90;;;;;;5091127;28;19956;-70
2021/07/07 05:23:07;;;;;;;;;;;15.90;99.90;;;;;;5084956;28;19996;-70
2021/07/07 05:25:37;;;;;;;;;;;15.90;99.90;;;;;;5070672;28;19964;-70
2021/07/07 05:28:05;;;;;;;;;;;15.90;99.90;;;;;;5065782;28;20002;-70
2021/07/07 05:30:32;;;;;;;;;;;15.90;99.90;;;;;;5085798;28;20000;-71
2021/07/07 05:33:00;;;;;;;;;;;15.90;99.90;;;;;;5077452;28;20035;-70
2021/07/07 05:35:27;;;;;;;;;;;15.90;99.90;;;;;;5057387;28;19987;-70
2021/07/07 05:37:54;;;;;;;;;;;15.90;99.90;;;;;;5094248;28;20045;-70
2021/07/07 05:40:21;;;;;;;;;;;15.90;99.90;;;;;;5063427;28;19967;-70
2021/07/07 05:42:54;;;;;;;;;;;16.00;99.90;;;;;;5057424;28;19968;-70
2021/07/07 05:45:22;;;;;;;;;;;16.00;99.90;;;;;;5076513;28;20017;-70
2021/07/07 05:47:49;;;;;;;;;;;16.10;99.90;;;;;;5074274;28;19945;-70
2021/07/07 05:50:19;;;;;;;;;;;16.10;99.90;;;;;;5078436;28;19950;-70
2021/07/07 05:53:14;;;;;;;;;;;16.10;99.90;;;;;;5073991;28;20393;-70
2021/07/07 05:55:41;;;;;;;;;;;16.20;99.90;;;;;;5077234;28;20377;-70
2021/07/07 05:58:07;;;;;;;;;;;16.20;99.90;;;;;;5074037;28;20076;-70
2021/07/07 06:00:34;;;;;;;;;;;16.20;99.90;;;;;;5084008;28;19977;-71
2021/07/07 06:03:01;;;;;;;;;;;16.30;99.90;;;;;;5081806;28;19950;-71
2021/07/07 06:05:28;;;;;;;;;;;16.30;99.90;;;;;;5088876;28;19998;-70
2021/07/07 06:07:55;;;;;;;;;;;16.40;99.90;;;;;;5089718;28;19966;-70
2021/07/07 06:10:23;;;;;;;;;;;16.40;99.90;;;;;;5087054;28;20363;-71
2021/07/07 06:12:51;;;;;;;;;;;16.40;99.90;;;;;;5085296;28;20020;-70
2021/07/07 06:15:18;;;;;;;;;;;16.50;99.90;;;;;;5067697;28;20318;-70
2021/07/07 06:17:45;;;;;;;;;;;16.50;99.90;;;;;;5083259;28;20022;-70
2021/07/07 06:20:13;;;;;;;;;;;16.50;99.90;;;;;;5099269;28;20462;-70
2021/07/07 06:22:40;;;;;;;;;;;16.60;99.90;;;;;;5091469;28;19960;-70
2021/07/07 06:25:08;;;;;;;;;;;16.60;99.90;;;;;;5068031;28;19991;-70
2021/07/07 06:27:37;;;;;;;;;;;16.60;99.90;;;;;;5075255;28;20000;-70
2021/07/07 06:30:04;;;;;;;;;;;16.70;99.90;;;;;;5090496;28;20028;-70
2021/07/07 06:32:31;;;;;;;;;;;16.60;99.90;;;;;;5065477;28;19952;-70
2021/07/07 06:35:01;;;;;;;;;;;16.70;99.90;;;;;;5076855;28;20008;-70
2021/07/07 06:37:28;;;;;;;;;;;16.70;99.90;;;;;;5096997;28;20012;-70
2021/07/07 06:39:56;;;;;;;;;;;16.70;99.90;;;;;;5073759;28;20057;-70
2021/07/07 06:42:22;;;;;;;;;;;16.80;99.90;;;;;;5098221;28;20031;-70
2021/07/07 06:44:49;;;;;;;;;;;16.80;99.90;;;;;;5096970;28;20456;-70
2021/07/07 06:47:16;;;;;;;;;;;16.90;99.90;;;;;;5083369;28;19943;-70
2021/07/07 06:49:43;;;;;;;;;;;16.90;99.90;;;;;;5111554;28;19951;-70
2021/07/07 06:52:10;;;;;;;;;;;17.00;99.90;;;;;;5095132;28;20399;-70
2021/07/07 06:54:36;;;;;;;;;;;17.00;99.90;;;;;;5081924;28;19983;-70
2021/07/07 06:57:03;;;;;;;;;;;17.00;99.90;;;;;;5097811;28;20327;-70
2021/07/07 06:59:30;;;;;;;;;;;17.10;99.90;;;;;;5096422;28;20008;-70
2021/07/07 07:01:56;;;;;;;;;;;17.10;99.90;;;;;;5087908;28;19950;-70
2021/07/07 07:04:26;;;;;;;;;;;17.20;99.90;;;;;;5100447;28;20345;-70
2021/07/07 07:06:53;;;;;;;;;;;17.20;99.90;;;;;;5071976;28;19995;-69
2021/07/07 07:09:20;;;;;;;;;;;17.20;99.90;;;;;;5109132;28;20038;-69
2021/07/07 07:11:47;;;;;;;;;;;17.30;99.90;;;;;;5091989;28;20518;-70
2021/07/07 07:14:13;;;;;;;;;;;17.30;99.90;;;;;;5110789;28;19981;-69
2021/07/07 07:16:42;;;;;;;;;;;17.40;99.90;;;;;;5099752;28;20523;-70
2021/07/07 07:19:09;;;;;;;;;;;17.40;99.90;;;;;;5081562;28;19964;-70
2021/07/07 07:21:36;;;;;;;;;;;17.40;99.90;;;;;;5092187;28;19984;-70
2021/07/07 07:24:02;;;;;;;;;;;17.40;99.90;;;;;;5105585;28;19980;-70
2021/07/07 07:26:29;;;;;;;;;;;17.30;99.90;;;;;;5102495;28;19947;-70
2021/07/07 07:28:56;;;;;;;;;;;17.30;99.90;;;;;;5090051;28;20000;-70
2021/07/07 07:31:23;;;;;;;;;;;17.30;99.90;;;;;;5107568;28;20309;-69
2021/07/07 07:33:50;;;;;;;;;;;17.30;99.90;;;;;;5119307;27;20304;-69
2021/07/07 07:36:23;;;;;;;;;;;17.40;99.90;;;;;;5082738;28;19951;-69
2021/07/07 07:38:58;;;;;;;;;;;17.40;99.90;;;;;;5086819;28;20015;-70
2021/07/07 07:41:29;;;;;;;;;;;17.50;99.90;;;;;;5089995;28;20553;-70
2021/07/07 07:47:25;;;;;;;;;;;17.70;99.90;;;;;;5093003;28;20451;-70
2021/07/07 07:50:11;;;;;;;;;;;17.80;99.90;;;;;;5103463;28;19945;-70
2021/07/07 07:52:38;;;;;;;;;;;17.90;99.90;;;;;;5101798;28;19945;-70
2021/07/07 07:55:05;;;;;;;;;;;18.00;99.90;;;;;;5107430;28;19923;-70
2021/07/07 07:57:36;;;;;;;;;;;18.10;99.90;;;;;;5079093;28;20034;-70
2021/07/07 08:00:05;;;;;;;;;;;18.20;99.90;;;;;;5089906;28;20031;-70
2021/07/07 08:02:32;;;;;;;;;;;18.30;99.90;;;;;;5096176;28;19987;-71
2021/07/07 08:04:59;;;;;;;;;;;18.30;99.90;;;;;;5093729;28;20029;-70
2021/07/07 08:07:28;;;;;;;;;;;18.40;99.90;;;;;;5088775;28;21734;-70
2021/07/07 08:09:55;;;;;;;;;;;18.40;99.90;;;;;;5100298;28;19959;-70
2021/07/07 08:12:22;;;;;;;;;;;18.50;99.90;;;;;;5094465;28;19940;-70
2021/07/07 08:14:50;;;;;;;;;;;18.50;99.90;;;;;;5088233;28;20026;-70
2021/07/07 08:17:18;;;;;;;;;;;18.50;99.90;;;;;;5088438;28;19939;-70
2021/07/07 08:19:45;;;;;;;;;;;18.50;99.90;;;;;;5094710;28;20066;-70
2021/07/07 08:22:11;;;;;;;;;;;18.50;99.90;;;;;;5091309;28;20325;-70
2021/07/07 08:24:38;;;;;;;;;;;18.60;99.90;;;;;;5095329;28;19942;-70
2021/07/07 08:27:26;;;;;;;;;;;18.80;99.90;;;;;;5092750;28;20381;-70
2021/07/07 08:29:53;;;;;;;;;;;18.90;99.90;;;;;;5110463;27;19977;-71
2021/07/07 08:32:23;;;;;;;;;;;19.00;99.90;;;;;;5103388;27;19932;-70
2021/07/07 08:34:49;;;;;;;;;;;19.10;99.90;;;;;;5094937;28;19924;-70
2021/07/07 08:37:16;;;;;;;;;;;19.10;99.90;;;;;;5080883;28;19934;-71
2021/07/07 08:39:43;;;;;;;;;;;19.20;99.90;;;;;;5087592;28;19924;-70
2021/07/07 08:42:10;;;;;;;;;;;19.10;99.90;;;;;;5095740;28;19924;-70
2021/07/07 08:44:36;;;;;;;;;;;19.10;99.90;;;;;;5096835;28;19993;-70
2021/07/07 08:47:03;;;;;;;;;;;19.00;99.90;;;;;;5086968;28;20346;-71
2021/07/07 08:49:30;;;;;;;;;;;19.00;99.90;;;;;;5064550;28;19979;-70
2021/07/07 08:51:56;;;;;;;;;;;19.00;99.90;;;;;;5098717;28;19975;-70
2021/07/07 08:54:23;;;;;;;;;;;18.90;99.90;;;;;;5076848;28;19998;-70
2021/07/07 08:56:50;;;;;;;;;;;19.00;99.90;;;;;;5079861;28;19966;-70
2021/07/07 08:59:17;;;;;;;;;;;19.10;99.90;;;;;;5084093;28;20000;-71
2021/07/07 09:02:02;;;;;;;;;;;19.20;99.90;;;;;;5098801;28;20355;-71
2021/07/07 09:04:39;;;;;;;;;;;19.20;99.90;;;;;;5109452;27;20075;-70
2021/07/07 09:07:07;;;;;;;;;;;19.30;99.90;;;;;;5094718;28;19967;-70
2021/07/07 09:09:36;;;;;;;;;;;19.40;99.90;;;;;;5079515;28;19959;-70
2021/07/07 09:12:16;;;;;;;;;;;19.30;99.90;;;;;;5095350;28;20005;-71
2021/07/07 09:14:43;;;;;;;;;;;19.30;99.90;;;;;;5100784;28;19994;-70
2021/07/07 09:17:11;;;;;;;;;;;19.20;99.90;;;;;;5082801;28;19975;-70
2021/07/07 09:19:39;;;;;;;;;;;19.30;99.90;;;;;;5085434;28;19993;-71
2021/07/07 09:22:07;;;;;;;;;;;19.30;99.90;;;;;;5088117;28;19935;-71
2021/07/07 09:24:34;;;;;;;;;;;19.40;99.90;;;;;;5091782;28;19983;-71
2021/07/07 09:27:12;;;;;;;;;;;19.60;99.90;;;;;;5077139;28;20397;-70
2021/07/07 09:29:52;;;;;;;;;;;19.80;99.90;;;;;;5084245;28;20410;-71
2021/07/07 09:32:20;;;;;;;;;;;19.80;99.90;;;;;;5082577;28;19945;-70
2021/07/07 09:34:49;;;;;;;;;;;19.80;99.90;;;;;;5087609;28;19924;-71
2021/07/07 09:37:24;;;;;;;;;;;19.80;99.90;;;;;;5068349;28;19928;-70
2021/07/07 09:39:52;;;;;;;;;;;19.70;99.90;;;;;;5084935;28;19954;-71
2021/07/07 09:42:38;;;;;;;;;;;19.60;99.90;;;;;;5094101;28;19943;-71
2021/07/07 09:45:06;;;;;;;;;;;19.60;99.90;;;;;;5096172;28;19993;-71
2021/07/07 09:47:34;;;;;;;;;;;19.50;99.90;;;;;;5091821;28;19967;-70
2021/07/07 09:50:01;;;;;;;;;;;19.50;99.90;;;;;;5096933;28;19942;-70
2021/07/07 09:52:29;;;;;;;;;;;19.50;99.90;;;;;;5076235;28;19967;-70
2021/07/07 09:54:56;;;;;;;;;;;19.50;99.90;;;;;;5101176;28;19977;-70
2021/07/07 09:57:23;;;;;;;;;;;19.50;99.90;;;;;;5087733;28;20310;-70
2021/07/07 09:59:50;;;;;;;;;;;19.50;99.90;;;;;;5077710;28;19997;-70
2021/07/07 10:02:17;;;;;;;;;;;19.60;99.90;;;;;;5071584;28;19992;-70
2021/07/07 10:04:44;;;;;;;;;;;19.60;99.90;;;;;;5090816;28;19928;-71
2021/07/07 10:07:11;;;;;;;;;;;19.60;99.90;;;;;;5083897;28;19947;-70
2021/07/07 10:09:39;;;;;;;;;;;19.60;99.90;;;;;;5073956;28;20429;-70
2021/07/07 10:12:06;;;;;;;;;;;19.60;99.90;;;;;;5084593;28;20340;-70
2021/07/07 10:14:33;;;;;;;;;;;19.60;99.90;;;;;;5105678;28;19969;-70
2021/07/07 10:16:59;;;;;;;;;;;19.60;99.90;;;;;;5092369;28;20889;-70
2021/07/07 10:19:27;;;;;;;;;;;19.60;99.90;;;;;;5084888;28;19979;-69
2021/07/07 10:21:55;;;;;;;;;;;19.70;99.90;;;;;;5084281;28;19936;-71
2021/07/07 10:24:24;;;;;;;;;;;19.70;99.90;;;;;;5097134;28;19929;-70
2021/07/07 10:26:52;;;;;;;;;;;19.80;99.90;;;;;;5094998;28;19997;-70
2021/07/07 10:29:19;;;;;;;;;;;19.80;99.90;;;;;;5102175;28;19928;-71
2021/07/07 10:32:05;;;;;;;;;;;19.80;99.90;;;;;;5103700;28;19954;-71
2021/07/07 10:34:32;;;;;;;;;;;19.80;99.90;;;;;;5093473;28;20383;-70
2021/07/07 10:37:00;;;;;;;;;;;19.80;99.90;;;;;;5100649;28;19982;-71
2021/07/07 10:39:27;;;;;;;;;;;19.80;99.90;;;;;;5077787;28;19968;-71
2021/07/07 10:41:55;;;;;;;;;;;19.80;99.90;;;;;;5085869;28;19953;-71
2021/07/07 10:44:22;;;;;;;;;;;19.70;99.90;;;;;;5080603;28;19958;-71
2021/07/07 10:46:59;;;;;;;;;;;19.70;99.90;;;;;;5076014;28;20325;-70
2021/07/07 10:49:36;;;;;;;;;;;19.70;99.90;;;;;;5100172;28;19924;-71
2021/07/07 10:52:04;;;;;;;;;;;19.80;99.90;;;;;;5105554;28;19978;-70
2021/07/07 10:54:32;;;;;;;;;;;19.90;99.90;;;;;;5106925;28;19994;-71
2021/07/07 10:57:00;;;;;;;;;;;20.00;99.90;;;;;;5106123;28;19940;-70
2021/07/07 10:59:30;;;;;;;;;;;20.10;99.90;;;;;;5108086;28;19993;-71
2021/07/07 11:02:08;;;;;;;;;;;20.30;99.90;;;;;;5107129;28;19974;-70
2021/07/07 11:04:36;;;;;;;;;;;20.30;99.90;;;;;;5076194;28;20331;-71
2021/07/07 11:07:22;;;;;;;;;;;20.40;99.90;;;;;;5069643;28;19965;-70
2021/07/07 11:09:55;;;;;;;;;;;20.50;99.90;;;;;;5093414;28;20225;-70
2021/07/07 11:12:28;;;;;;;;;;;20.50;99.90;;;;;;5098769;28;19973;-71
2021/07/07 11:14:59;;;;;;;;;;;20.40;99.90;;;;;;5079079;28;19989;-70
2021/07/07 11:17:31;;;;;;;;;;;20.30;99.90;;;;;;5093777;28;19963;-70
2021/07/07 11:19:58;;;;;;;;;;;20.20;99.90;;;;;;5094887;28;20060;-71
2021/07/07 11:22:25;;;;;;;;;;;20.10;99.90;;;;;;5064661;28;19948;-70
2021/07/07 11:24:55;;;;;;;;;;;19.90;99.90;;;;;;5095351;28;19927;-70
2021/07/07 11:27:22;;;;;;;;;;;19.80;99.90;;;;;;5072727;28;19995;-70
2021/07/07 11:29:49;;;;;;;;;;;19.70;99.90;;;;;;5095878;28;20349;-70
2021/07/07 11:32:37;;;;;;;;;;;19.60;99.90;;;;;;5085262;28;19924;-70
2021/07/07 11:35:05;;;;;;;;;;;19.60;99.90;;;;;;5100703;28;19959;-70
2021/07/07 11:37:32;;;;;;;;;;;19.60;99.90;;;;;;5091586;28;20383;-70
2021/07/07 11:40:05;;;;;;;;;;;19.70;99.90;;;;;;5064491;28;19997;-70
2021/07/07 11:42:32;;;;;;;;;;;19.80;99.90;;;;;;5086536;28;19931;-70
2021/07/07 11:44:58;;;;;;;;;;;20.00;99.90;;;;;;5104035;28;20028;-71
2021/07/07 11:47:26;;;;;;;;;;;20.00;99.90;;;;;;5097735;28;20003;-71
2021/07/07 11:50:02;;;;;;;;;;;20.10;99.90;;;;;;5076301;28;20030;-70
2021/07/07 11:52:30;;;;;;;;;;;20.10;99.90;;;;;;5085800;28;19963;-70
2021/07/07 11:54:57;;;;;;;;;;;20.10;99.90;;;;;;5077190;28;19998;-70
2021/07/07 11:57:23;;;;;;;;;;;20.10;99.90;;;;;;5089569;28;20436;-70
2021/07/07 11:59:51;;;;;;;;;;;20.10;99.90;;;;;;5097038;28;19924;-70
2021/07/07 12:02:18;;;;;;;;;;;20.10;99.90;;;;;;5079546;28;19967;-70
2021/07/07 12:04:46;;;;;;;;;;;20.10;99.90;;;;;;5102162;28;19954;-70
2021/07/07 12:07:13;;;;;;;;;;;20.10;99.90;;;;;;5082261;28;19978;-71
2021/07/07 12:09:40;;;;;;;;;;;20.10;99.90;;;;;;5101682;28;19965;-70
2021/07/07 12:12:09;;;;;;;;;;;20.10;99.90;;;;;;5099501;28;19936;-71
2021/07/07 12:14:38;;;;;;;;;;;20.10;99.90;;;;;;5100321;28;19924;-70
2021/07/07 12:17:05;;;;;;;;;;;20.10;99.90;;;;;;5093886;28;19924;-71
2021/07/07 12:19:32;;;;;;;;;;;20.10;99.90;;;;;;5101209;28;19928;-70
2021/07/07 12:22:01;;;;;;;;;;;20.20;99.90;;;;;;5098907;28;20080;-70
2021/07/07 12:24:28;;;;;;;;;;;20.20;99.90;;;;;;5096946;28;19954;-70
2021/07/07 12:26:57;;;;;;;;;;;20.30;99.90;;;;;;5102859;28;20465;-70
2021/07/07 12:29:25;;;;;;;;;;;20.40;99.90;;;;;;5098948;28;19963;-70
2021/07/07 12:31:53;;;;;;;;;;;20.40;99.90;;;;;;5077795;28;19956;-70
2021/07/07 12:34:24;;;;;;;;;;;20.40;99.90;;;;;;5087656;28;19924;-70
2021/07/07 12:36:52;;;;;;;;;;;20.40;99.90;;;;;;5097460;28;19996;-71
2021/07/07 12:39:23;;;;;;;;;;;20.40;99.90;;;;;;5088252;28;20339;-71
2021/07/07 12:42:14;;;;;;;;;;;20.40;99.90;;;;;;5089263;28;19928;-70
2021/07/07 12:44:42;;;;;;;;;;;20.30;99.90;;;;;;5093830;28;19925;-71
2021/07/07 12:47:08;;;;;;;;;;;20.30;99.90;;;;;;5098708;28;19965;-70
2021/07/07 12:49:38;;;;;;;;;;;20.30;99.90;;;;;;5101788;28;19950;-70
2021/07/07 12:52:17;;;;;;;;;;;20.30;99.90;;;;;;5112058;27;19924;-70
2021/07/07 12:54:45;;;;;;;;;;;20.40;99.90;;;;;;5084702;28;19925;-71
2021/07/07 12:57:11;;;;;;;;;;;20.40;99.90;;;;;;5102523;28;19963;-71
2021/07/07 12:59:50;;;;;;;;;;;20.50;99.90;;;;;;5073455;28;20278;-71
2021/07/07 13:02:17;;;;;;;;;;;20.50;99.90;;;;;;5087884;28;19932;-70
2021/07/07 13:04:45;;;;;;;;;;;20.60;99.90;;;;;;5106160;27;20018;-71
2021/07/07 13:07:13;;;;;;;;;;;20.60;99.90;;;;;;5080729;28;20005;-71
2021/07/07 13:09:40;;;;;;;;;;;20.60;99.90;;;;;;5087195;28;19953;-70
2021/07/07 13:12:08;;;;;;;;;;;20.60;99.90;;;;;;5071482;28;19979;-71
2021/07/07 13:14:35;;;;;;;;;;;20.60;99.90;;;;;;5094730;28;19974;-70
2021/07/07 13:17:03;;;;;;;;;;;20.60;99.90;;;;;;5072567;28;19982;-70
2021/07/07 13:19:33;;;;;;;;;;;20.70;99.90;;;;;;5101577;28;19924;-70
2021/07/07 13:22:01;;;;;;;;;;;20.70;99.90;;;;;;5091722;28;19931;-70
2021/07/07 13:24:32;;;;;;;;;;;20.60;99.90;;;;;;5099889;28;19924;-70
2021/07/07 13:27:00;;;;;;;;;;;20.60;99.90;;;;;;5069555;28;20405;-70
2021/07/07 13:29:32;;;;;;;;;;;20.60;99.90;;;;;;5074970;28;20515;-70
2021/07/07 13:32:17;;;;;;;;;;;20.70;99.90;;;;;;5095609;28;20333;-70
2021/07/07 13:34:45;;;;;;;;;;;20.70;99.90;;;;;;5099703;28;19975;-71
2021/07/07 13:37:17;;;;;;;;;;;20.70;99.90;;;;;;5070310;28;19924;-70
2021/07/07 13:39:48;;;;;;;;;;;20.80;99.90;;;;;;5082081;28;19929;-70
2021/07/07 13:42:15;;;;;;;;;;;20.90;99.90;;;;;;5097260;28;20001;-70
2021/07/07 13:44:43;;;;;;;;;;;21.00;99.90;;;;;;5091049;28;19928;-70
2021/07/07 13:47:10;;;;;;;;;;;21.10;99.90;;;;;;5091167;28;19925;-70
2021/07/07 13:49:37;;;;;;;;;;;21.20;99.90;;;;;;5095839;28;19932;-70
2021/07/07 13:52:04;;;;;;;;;;;21.30;99.90;;;;;;5096911;28;19985;-71
2021/07/07 13:54:31;;;;;;;;;;;21.40;99.90;;;;;;5085040;28;20391;-70
2021/07/07 13:56:58;;;;;;;;;;;21.40;99.90;;;;;;5101919;28;19967;-70
2021/07/07 13:59:24;;;;;;;;;;;21.50;99.90;;;;;;5119563;28;19931;-70
2021/07/07 14:01:51;;;;;;;;;;;21.50;99.90;;;;;;5100207;28;19971;-70
2021/07/07 14:04:18;;;;;;;;;;;21.40;99.90;;;;;;5105879;28;19924;-70
2021/07/07 14:06:44;;;;;;;;;;;21.40;99.90;;;;;;5100526;28;20282;-70
2021/07/07 14:09:14;;;;;;;;;;;21.30;99.90;;;;;;5110134;28;19934;-70
2021/07/07 14:11:41;;;;;;;;;;;21.30;99.90;;;;;;5092984;28;19924;-70
2021/07/07 14:14:08;;;;;;;;;;;21.20;99.90;;;;;;5090759;28;19928;-70
2021/07/07 14:16:35;;;;;;;;;;;21.20;99.90;;;;;;5092571;28;19966;-70
2021/07/07 14:19:02;;;;;;;;;;;21.20;99.90;;;;;;5096975;28;19934;-70
2021/07/07 14:21:32;;;;;;;;;;;21.20;99.90;;;;;;5089830;28;19928;-70
2021/07/07 14:24:00;;;;;;;;;;;21.10;99.90;;;;;;5089241;28;19955;-69
2021/07/07 14:26:27;;;;;;;;;;;21.10;99.90;;;;;;5089939;28;19939;-70